Terminal Aerodrome Forecast
Issued by NWS Grand Forks, ND

Home | Current Version | Previous Version | Graphics & Text | Print | Product List | Glossary On
Versions: 1 2 3 4 5 6 7 8 9 10 11 12
862
FTUS43 KFGF 131720
TAFGFK
TAF
KGFK 131720Z 1318/1418 18015KT P6SM BKN060
      TEMPO 1318/1320 -SN
     FM132000 18016KT P6SM BKN060
      TEMPO 1320/1322 SCT060
     FM132200 18015KT P6SM SCT070
     FM140700 21009KT P6SM FEW250
     FM141100 25007KT P6SM FEW250=

USA.gov is the U.S. government's official web portal to all federal, state and local government web resources and services.